sensor_id;sensor_type;location;lat;lon;timestamp;P1;durP1;ratioP1;P2;durP2;ratioP2
38865;SDS011;62686;48.984;8.394;2023-06-04T00:00:33;6.88;;;3.75;;
38865;SDS011;62686;48.984;8.394;2023-06-04T00:03:03;4.53;;;3.50;;
38865;SDS011;62686;48.984;8.394;2023-06-04T00:05:31;5.53;;;4.07;;
38865;SDS011;62686;48.984;8.394;2023-06-04T00:07:59;6.97;;;4.40;;
38865;SDS011;62686;48.984;8.394;2023-06-04T00:10:28;4.68;;;3.63;;
38865;SDS011;62686;48.984;8.394;2023-06-04T00:12:57;6.60;;;3.80;;
38865;SDS011;62686;48.984;8.394;2023-06-04T00:15:25;5.60;;;3.85;;
38865;SDS011;62686;48.984;8.394;2023-06-04T00:17:53;5.72;;;3.80;;
38865;SDS011;62686;48.984;8.394;2023-06-04T00:20:24;7.82;;;4.00;;
38865;SDS011;62686;48.984;8.394;2023-06-04T00:22:52;6.68;;;3.85;;
38865;SDS011;62686;48.984;8.394;2023-06-04T00:25:21;6.70;;;3.45;;
38865;SDS011;62686;48.984;8.394;2023-06-04T00:27:49;5.03;;;3.78;;
38865;SDS011;62686;48.984;8.394;2023-06-04T00:30:19;6.13;;;3.70;;
38865;SDS011;62686;48.984;8.394;2023-06-04T00:32:47;6.47;;;3.80;;
38865;SDS011;62686;48.984;8.394;2023-06-04T00:35:16;5.40;;;3.45;;
38865;SDS011;62686;48.984;8.394;2023-06-04T00:37:45;7.75;;;3.67;;
38865;SDS011;62686;48.984;8.394;2023-06-04T00:40:14;6.45;;;3.53;;
38865;SDS011;62686;48.984;8.394;2023-06-04T00:42:43;4.93;;;3.17;;
38865;SDS011;62686;48.984;8.394;2023-06-04T00:45:12;5.63;;;3.38;;
38865;SDS011;62686;48.984;8.394;2023-06-04T00:47:42;6.45;;;3.40;;
38865;SDS011;62686;48.984;8.394;2023-06-04T00:50:10;4.93;;;3.28;;
38865;SDS011;62686;48.984;8.394;2023-06-04T00:52:39;4.65;;;2.97;;
38865;SDS011;62686;48.984;8.394;2023-06-04T00:55:09;5.50;;;3.58;;
38865;SDS011;62686;48.984;8.394;2023-06-04T00:57:38;5.88;;;3.33;;
38865;SDS011;62686;48.984;8.394;2023-06-04T01:00:06;3.80;;;3.25;;
38865;SDS011;62686;48.984;8.394;2023-06-04T01:02:36;5.47;;;3.38;;
38865;SDS011;62686;48.984;8.394;2023-06-04T01:05:09;4.80;;;3.10;;
38865;SDS011;62686;48.984;8.394;2023-06-04T01:07:44;4.80;;;2.90;;
38865;SDS011;62686;48.984;8.394;2023-06-04T01:10:15;10.13;;;3.58;;
38865;SDS011;62686;48.984;8.394;2023-06-04T01:12:44;4.88;;;3.17;;
38865;SDS011;62686;48.984;8.394;2023-06-04T01:15:12;4.47;;;3.20;;
38865;SDS011;62686;48.984;8.394;2023-06-04T01:17:41;4.55;;;2.55;;
38865;SDS011;62686;48.984;8.394;2023-06-04T01:20:18;5.85;;;2.80;;
38865;SDS011;62686;48.984;8.394;2023-06-04T01:22:59;6.72;;;2.35;;
38865;SDS011;62686;48.984;8.394;2023-06-04T01:25:42;5.55;;;2.40;;
38865;SDS011;62686;48.984;8.394;2023-06-04T01:28:15;4.18;;;2.13;;
38865;SDS011;62686;48.984;8.394;2023-06-04T01:30:47;5.13;;;2.72;;
38865;SDS011;62686;48.984;8.394;2023-06-04T01:33:17;5.32;;;2.35;;
38865;SDS011;62686;48.984;8.394;2023-06-04T01:35:47;4.25;;;2.58;;
38865;SDS011;62686;48.984;8.394;2023-06-04T01:38:15;6.25;;;2.63;;
38865;SDS011;62686;48.984;8.394;2023-06-04T01:40:45;3.95;;;2.35;;
38865;SDS011;62686;48.984;8.394;2023-06-04T01:43:14;3.17;;;2.33;;
38865;SDS011;62686;48.984;8.394;2023-06-04T01:45:42;3.55;;;2.30;;
38865;SDS011;62686;48.984;8.394;2023-06-04T01:48:10;3.03;;;2.10;;
38865;SDS011;62686;48.984;8.394;2023-06-04T01:50:39;6.00;;;2.55;;
38865;SDS011;62686;48.984;8.394;2023-06-04T01:53:07;4.93;;;2.17;;
38865;SDS011;62686;48.984;8.394;2023-06-04T01:55:35;6.18;;;2.28;;
38865;SDS011;62686;48.984;8.394;2023-06-04T01:58:05;3.05;;;2.30;;
38865;SDS011;62686;48.984;8.394;2023-06-04T02:00:35;6.13;;;2.10;;
38865;SDS011;62686;48.984;8.394;2023-06-04T02:03:04;3.92;;;2.05;;
38865;SDS011;62686;48.984;8.394;2023-06-04T02:05:32;4.97;;;2.30;;
38865;SDS011;62686;48.984;8.394;2023-06-04T02:08:00;2.53;;;1.75;;
38865;SDS011;62686;48.984;8.394;2023-06-04T02:10:31;4.22;;;2.10;;
38865;SDS011;62686;48.984;8.394;2023-06-04T02:12:59;2.33;;;1.80;;
38865;SDS011;62686;48.984;8.394;2023-06-04T02:15:31;4.07;;;1.73;;
38865;SDS011;62686;48.984;8.394;2023-06-04T02:18:10;3.70;;;1.70;;
38865;SDS011;62686;48.984;8.394;2023-06-04T02:20:43;3.60;;;1.88;;
38865;SDS011;62686;48.984;8.394;2023-06-04T02:23:12;5.38;;;2.13;;
38865;SDS011;62686;48.984;8.394;2023-06-04T02:25:41;3.00;;;1.98;;
38865;SDS011;62686;48.984;8.394;2023-06-04T02:28:11;2.25;;;1.70;;
38865;SDS011;62686;48.984;8.394;2023-06-04T02:30:41;2.47;;;1.92;;
38865;SDS011;62686;48.984;8.394;2023-06-04T02:33:11;4.28;;;1.88;;
38865;SDS011;62686;48.984;8.394;2023-06-04T02:35:40;4.97;;;2.03;;
38865;SDS011;62686;48.984;8.394;2023-06-04T02:38:08;4.40;;;2.10;;
38865;SDS011;62686;48.984;8.394;2023-06-04T02:40:37;3.10;;;1.63;;
38865;SDS011;62686;48.984;8.394;2023-06-04T02:43:06;3.60;;;1.40;;
38865;SDS011;62686;48.984;8.394;2023-06-04T02:45:34;3.08;;;1.70;;
38865;SDS011;62686;48.984;8.394;2023-06-04T02:48:03;4.50;;;1.85;;
38865;SDS011;62686;48.984;8.394;2023-06-04T02:50:32;4.68;;;1.83;;
38865;SDS011;62686;48.984;8.394;2023-06-04T02:53:00;6.70;;;1.73;;
38865;SDS011;62686;48.984;8.394;2023-06-04T02:55:28;3.10;;;1.80;;
38865;SDS011;62686;48.984;8.394;2023-06-04T02:57:57;5.30;;;2.05;;
38865;SDS011;62686;48.984;8.394;2023-06-04T03:00:25;1.83;;;1.60;;
38865;SDS011;62686;48.984;8.394;2023-06-04T03:02:53;5.00;;;1.92;;
38865;SDS011;62686;48.984;8.394;2023-06-04T03:05:29;3.42;;;1.90;;
38865;SDS011;62686;48.984;8.394;2023-06-04T03:08:00;2.97;;;1.60;;
38865;SDS011;62686;48.984;8.394;2023-06-04T03:10:29;4.13;;;1.60;;
38865;SDS011;62686;48.984;8.394;2023-06-04T03:12:58;7.63;;;1.90;;
38865;SDS011;62686;48.984;8.394;2023-06-04T03:15:27;3.90;;;1.95;;
38865;SDS011;62686;48.984;8.394;2023-06-04T03:17:55;2.92;;;1.67;;
38865;SDS011;62686;48.984;8.394;2023-06-04T03:20:23;2.40;;;1.48;;
38865;SDS011;62686;48.984;8.394;2023-06-04T03:22:53;4.22;;;1.80;;
38865;SDS011;62686;48.984;8.394;2023-06-04T03:25:21;4.18;;;1.60;;
38865;SDS011;62686;48.984;8.394;2023-06-04T03:27:49;2.90;;;1.70;;
38865;SDS011;62686;48.984;8.394;2023-06-04T03:30:18;4.90;;;1.77;;
38865;SDS011;62686;48.984;8.394;2023-06-04T03:32:46;3.63;;;1.95;;
38865;SDS011;62686;48.984;8.394;2023-06-04T03:35:14;7.82;;;1.95;;
38865;SDS011;62686;48.984;8.394;2023-06-04T03:37:43;5.45;;;1.83;;
38865;SDS011;62686;48.984;8.394;2023-06-04T03:40:13;1.83;;;1.52;;
38865;SDS011;62686;48.984;8.394;2023-06-04T03:42:41;2.83;;;1.60;;
38865;SDS011;62686;48.984;8.394;2023-06-04T03:45:10;2.75;;;1.50;;
38865;SDS011;62686;48.984;8.394;2023-06-04T03:47:38;2.17;;;1.75;;
38865;SDS011;62686;48.984;8.394;2023-06-04T03:50:07;6.30;;;1.40;;
38865;SDS011;62686;48.984;8.394;2023-06-04T03:52:36;2.78;;;1.60;;
38865;SDS011;62686;48.984;8.394;2023-06-04T03:55:04;2.38;;;1.65;;
38865;SDS011;62686;48.984;8.394;2023-06-04T03:57:35;2.28;;;1.60;;
38865;SDS011;62686;48.984;8.394;2023-06-04T04:00:05;3.40;;;1.80;;
38865;SDS011;62686;48.984;8.394;2023-06-04T04:02:35;2.63;;;1.58;;
38865;SDS011;62686;48.984;8.394;2023-06-04T04:05:03;5.80;;;1.63;;
38865;SDS011;62686;48.984;8.394;2023-06-04T04:07:32;4.70;;;1.50;;
38865;SDS011;62686;48.984;8.394;2023-06-04T04:10:00;4.90;;;1.40;;
38865;SDS011;62686;48.984;8.394;2023-06-04T04:12:29;4.35;;;1.30;;
38865;SDS011;62686;48.984;8.394;2023-06-04T04:14:58;4.43;;;1.40;;
38865;SDS011;62686;48.984;8.394;2023-06-04T04:17:27;3.67;;;1.20;;
38865;SDS011;62686;48.984;8.394;2023-06-04T04:19:55;3.75;;;1.50;;
38865;SDS011;62686;48.984;8.394;2023-06-04T04:22:23;3.75;;;1.60;;
38865;SDS011;62686;48.984;8.394;2023-06-04T04:24:51;3.40;;;1.60;;
38865;SDS011;62686;48.984;8.394;2023-06-04T04:27:19;3.30;;;1.63;;
38865;SDS011;62686;48.984;8.394;2023-06-04T04:29:49;3.08;;;1.33;;
38865;SDS011;62686;48.984;8.394;2023-06-04T04:32:18;2.35;;;1.70;;
38865;SDS011;62686;48.984;8.394;2023-06-04T04:34:50;5.40;;;1.58;;
38865;SDS011;62686;48.984;8.394;2023-06-04T04:37:19;4.55;;;1.40;;
38865;SDS011;62686;48.984;8.394;2023-06-04T04:39:48;4.50;;;1.58;;
38865;SDS011;62686;48.984;8.394;2023-06-04T04:42:19;2.55;;;1.33;;
38865;SDS011;62686;48.984;8.394;2023-06-04T04:44:47;3.80;;;1.42;;
38865;SDS011;62686;48.984;8.394;2023-06-04T04:47:16;4.38;;;1.52;;
38865;SDS011;62686;48.984;8.394;2023-06-04T04:49:46;3.42;;;1.65;;
38865;SDS011;62686;48.984;8.394;2023-06-04T04:52:15;1.95;;;1.20;;
38865;SDS011;62686;48.984;8.394;2023-06-04T04:54:44;2.97;;;1.50;;
38865;SDS011;62686;48.984;8.394;2023-06-04T04:57:12;3.75;;;1.70;;
38865;SDS011;62686;48.984;8.394;2023-06-04T04:59:40;4.60;;;1.52;;
38865;SDS011;62686;48.984;8.394;2023-06-04T05:02:08;5.53;;;1.50;;
38865;SDS011;62686;48.984;8.394;2023-06-04T05:04:38;2.70;;;1.45;;
38865;SDS011;62686;48.984;8.394;2023-06-04T05:07:06;2.97;;;1.48;;
38865;SDS011;62686;48.984;8.394;2023-06-04T05:09:35;2.58;;;1.38;;
38865;SDS011;62686;48.984;8.394;2023-06-04T05:12:03;3.20;;;1.33;;
38865;SDS011;62686;48.984;8.394;2023-06-04T05:14:31;2.22;;;1.20;;
38865;SDS011;62686;48.984;8.394;2023-06-04T05:17:02;4.88;;;1.33;;
38865;SDS011;62686;48.984;8.394;2023-06-04T05:19:30;4.05;;;1.50;;
38865;SDS011;62686;48.984;8.394;2023-06-04T05:22:00;5.30;;;1.27;;
38865;SDS011;62686;48.984;8.394;2023-06-04T05:24:29;1.35;;;1.20;;
38865;SDS011;62686;48.984;8.394;2023-06-04T05:26:58;3.53;;;1.40;;
38865;SDS011;62686;48.984;8.394;2023-06-04T05:29:26;3.28;;;1.15;;
38865;SDS011;62686;48.984;8.394;2023-06-04T05:31:54;3.97;;;1.58;;
38865;SDS011;62686;48.984;8.394;2023-06-04T05:34:22;5.10;;;1.52;;
38865;SDS011;62686;48.984;8.394;2023-06-04T05:36:53;1.50;;;1.17;;
38865;SDS011;62686;48.984;8.394;2023-06-04T05:39:24;3.80;;;1.35;;
38865;SDS011;62686;48.984;8.394;2023-06-04T05:41:52;3.17;;;1.30;;
38865;SDS011;62686;48.984;8.394;2023-06-04T05:44:20;3.80;;;1.33;;
38865;SDS011;62686;48.984;8.394;2023-06-04T05:46:48;3.45;;;1.27;;
38865;SDS011;62686;48.984;8.394;2023-06-04T05:49:17;4.35;;;1.58;;
38865;SDS011;62686;48.984;8.394;2023-06-04T05:51:46;2.95;;;1.60;;
38865;SDS011;62686;48.984;8.394;2023-06-04T05:54:14;2.95;;;1.42;;
38865;SDS011;62686;48.984;8.394;2023-06-04T05:56:44;2.42;;;1.35;;
38865;SDS011;62686;48.984;8.394;2023-06-04T05:59:12;3.13;;;1.23;;
38865;SDS011;62686;48.984;8.394;2023-06-04T06:01:41;3.60;;;1.60;;
38865;SDS011;62686;48.984;8.394;2023-06-04T06:04:10;3.25;;;1.50;;
38865;SDS011;62686;48.984;8.394;2023-06-04T06:06:38;3.03;;;1.60;;
38865;SDS011;62686;48.984;8.394;2023-06-04T06:09:07;6.65;;;1.63;;
38865;SDS011;62686;48.984;8.394;2023-06-04T06:11:35;2.88;;;1.40;;
38865;SDS011;62686;48.984;8.394;2023-06-04T06:14:05;4.13;;;1.42;;
38865;SDS011;62686;48.984;8.394;2023-06-04T06:16:33;3.38;;;1.30;;
38865;SDS011;62686;48.984;8.394;2023-06-04T06:19:02;2.10;;;1.33;;
38865;SDS011;62686;48.984;8.394;2023-06-04T06:21:30;3.20;;;1.25;;
38865;SDS011;62686;48.984;8.394;2023-06-04T06:23:58;3.47;;;1.27;;
38865;SDS011;62686;48.984;8.394;2023-06-04T06:26:26;4.70;;;1.40;;
38865;SDS011;62686;48.984;8.394;2023-06-04T06:28:55;5.32;;;1.60;;
38865;SDS011;62686;48.984;8.394;2023-06-04T06:31:25;8.85;;;3.00;;
38865;SDS011;62686;48.984;8.394;2023-06-04T06:33:54;1.60;;;1.38;;
38865;SDS011;62686;48.984;8.394;2023-06-04T06:36:22;1.60;;;1.30;;
38865;SDS011;62686;48.984;8.394;2023-06-04T06:38:51;3.92;;;1.50;;
38865;SDS011;62686;48.984;8.394;2023-06-04T06:41:19;2.30;;;1.20;;
38865;SDS011;62686;48.984;8.394;2023-06-04T06:43:48;1.75;;;1.45;;
38865;SDS011;62686;48.984;8.394;2023-06-04T06:46:17;1.58;;;1.30;;
38865;SDS011;62686;48.984;8.394;2023-06-04T06:48:46;4.57;;;1.40;;
38865;SDS011;62686;48.984;8.394;2023-06-04T06:51:15;3.95;;;1.33;;
38865;SDS011;62686;48.984;8.394;2023-06-04T06:53:43;1.52;;;1.17;;
38865;SDS011;62686;48.984;8.394;2023-06-04T06:56:13;2.80;;;1.50;;
38865;SDS011;62686;48.984;8.394;2023-06-04T06:58:42;4.10;;;1.35;;
38865;SDS011;62686;48.984;8.394;2023-06-04T07:01:11;1.67;;;1.30;;
38865;SDS011;62686;48.984;8.394;2023-06-04T07:03:39;2.47;;;1.50;;
38865;SDS011;62686;48.984;8.394;2023-06-04T07:06:09;8.60;;;1.95;;
38865;SDS011;62686;48.984;8.394;2023-06-04T07:08:37;2.03;;;1.40;;
38865;SDS011;62686;48.984;8.394;2023-06-04T07:11:06;1.40;;;1.10;;
38865;SDS011;62686;48.984;8.394;2023-06-04T07:13:38;4.85;;;1.58;;
38865;SDS011;62686;48.984;8.394;2023-06-04T07:16:06;7.35;;;1.77;;
38865;SDS011;62686;48.984;8.394;2023-06-04T07:18:34;2.92;;;1.45;;
38865;SDS011;62686;48.984;8.394;2023-06-04T07:21:03;6.13;;;1.60;;
38865;SDS011;62686;48.984;8.394;2023-06-04T07:23:33;6.22;;;1.63;;
38865;SDS011;62686;48.984;8.394;2023-06-04T07:26:01;2.65;;;1.50;;
38865;SDS011;62686;48.984;8.394;2023-06-04T07:28:30;1.90;;;1.35;;
38865;SDS011;62686;48.984;8.394;2023-06-04T07:30:58;2.78;;;1.55;;
38865;SDS011;62686;48.984;8.394;2023-06-04T07:33:26;4.03;;;1.63;;
38865;SDS011;62686;48.984;8.394;2023-06-04T07:35:54;4.22;;;1.40;;
38865;SDS011;62686;48.984;8.394;2023-06-04T07:38:23;5.22;;;1.30;;
38865;SDS011;62686;48.984;8.394;2023-06-04T07:40:52;2.38;;;1.50;;
38865;SDS011;62686;48.984;8.394;2023-06-04T07:43:21;4.13;;;1.40;;
38865;SDS011;62686;48.984;8.394;2023-06-04T07:45:49;2.42;;;1.52;;
38865;SDS011;62686;48.984;8.394;2023-06-04T07:48:17;4.38;;;1.42;;
38865;SDS011;62686;48.984;8.394;2023-06-04T07:50:46;7.90;;;1.77;;
38865;SDS011;62686;48.984;8.394;2023-06-04T07:53:14;3.25;;;1.40;;
38865;SDS011;62686;48.984;8.394;2023-06-04T07:55:42;2.35;;;1.38;;
38865;SDS011;62686;48.984;8.394;2023-06-04T07:58:12;3.25;;;1.70;;
38865;SDS011;62686;48.984;8.394;2023-06-04T08:00:41;4.30;;;1.20;;
38865;SDS011;62686;48.984;8.394;2023-06-04T08:03:09;5.95;;;1.35;;
38865;SDS011;62686;48.984;8.394;2023-06-04T08:05:38;2.92;;;1.60;;
38865;SDS011;62686;48.984;8.394;2023-06-04T08:08:06;1.75;;;1.30;;
38865;SDS011;62686;48.984;8.394;2023-06-04T08:10:35;3.33;;;1.35;;
38865;SDS011;62686;48.984;8.394;2023-06-04T08:13:04;3.40;;;1.30;;
38865;SDS011;62686;48.984;8.394;2023-06-04T08:15:34;2.47;;;1.20;;
38865;SDS011;62686;48.984;8.394;2023-06-04T08:18:02;3.88;;;1.42;;
38865;SDS011;62686;48.984;8.394;2023-06-04T08:20:30;2.08;;;1.63;;
38865;SDS011;62686;48.984;8.394;2023-06-04T08:22:59;2.70;;;1.30;;
38865;SDS011;62686;48.984;8.394;2023-06-04T08:25:27;1.98;;;1.27;;
38865;SDS011;62686;48.984;8.394;2023-06-04T08:27:58;3.03;;;1.45;;
38865;SDS011;62686;48.984;8.394;2023-06-04T08:30:27;2.45;;;1.40;;
38865;SDS011;62686;48.984;8.394;2023-06-04T08:32:57;2.05;;;1.40;;
38865;SDS011;62686;48.984;8.394;2023-06-04T08:35:25;2.58;;;1.33;;
38865;SDS011;62686;48.984;8.394;2023-06-04T08:37:53;7.70;;;1.60;;
38865;SDS011;62686;48.984;8.394;2023-06-04T08:40:22;5.35;;;1.50;;
38865;SDS011;62686;48.984;8.394;2023-06-04T08:42:52;2.17;;;1.30;;
38865;SDS011;62686;48.984;8.394;2023-06-04T08:45:24;4.20;;;1.45;;
38865;SDS011;62686;48.984;8.394;2023-06-04T08:47:53;2.40;;;1.50;;
38865;SDS011;62686;48.984;8.394;2023-06-04T08:50:25;4.32;;;1.83;;
38865;SDS011;62686;48.984;8.394;2023-06-04T08:52:54;3.47;;;1.70;;
38865;SDS011;62686;48.984;8.394;2023-06-04T08:55:23;2.55;;;1.40;;
38865;SDS011;62686;48.984;8.394;2023-06-04T08:57:52;4.40;;;1.70;;
38865;SDS011;62686;48.984;8.394;2023-06-04T09:00:22;1.77;;;1.58;;
38865;SDS011;62686;48.984;8.394;2023-06-04T09:02:50;3.40;;;1.60;;
38865;SDS011;62686;48.984;8.394;2023-06-04T09:05:20;2.55;;;1.50;;
38865;SDS011;62686;48.984;8.394;2023-06-04T09:07:53;2.92;;;1.88;;
38865;SDS011;62686;48.984;8.394;2023-06-04T09:10:24;7.10;;;1.83;;
38865;SDS011;62686;48.984;8.394;2023-06-04T09:12:53;2.67;;;1.33;;
38865;SDS011;62686;48.984;8.394;2023-06-04T09:15:24;2.88;;;1.40;;
38865;SDS011;62686;48.984;8.394;2023-06-04T09:17:52;4.13;;;1.70;;
38865;SDS011;62686;48.984;8.394;2023-06-04T09:20:22;7.13;;;1.67;;
38865;SDS011;62686;48.984;8.394;2023-06-04T09:22:51;4.00;;;1.80;;
38865;SDS011;62686;48.984;8.394;2023-06-04T09:25:21;5.63;;;1.52;;
38865;SDS011;62686;48.984;8.394;2023-06-04T09:27:51;2.80;;;1.60;;
38865;SDS011;62686;48.984;8.394;2023-06-04T09:30:22;3.00;;;1.48;;
38865;SDS011;62686;48.984;8.394;2023-06-04T09:32:51;3.20;;;1.80;;
38865;SDS011;62686;48.984;8.394;2023-06-04T09:35:20;1.95;;;1.67;;
38865;SDS011;62686;48.984;8.394;2023-06-04T09:37:53;2.63;;;1.48;;
38865;SDS011;62686;48.984;8.394;2023-06-04T09:40:23;3.95;;;1.50;;
38865;SDS011;62686;48.984;8.394;2023-06-04T09:42:51;4.35;;;1.63;;
38865;SDS011;62686;48.984;8.394;2023-06-04T09:45:28;3.90;;;1.48;;
38865;SDS011;62686;48.984;8.394;2023-06-04T09:47:57;5.22;;;1.70;;
38865;SDS011;62686;48.984;8.394;2023-06-04T09:50:26;2.40;;;1.83;;
38865;SDS011;62686;48.984;8.394;2023-06-04T09:52:58;2.08;;;1.58;;
38865;SDS011;62686;48.984;8.394;2023-06-04T09:55:27;3.45;;;1.80;;
38865;SDS011;62686;48.984;8.394;2023-06-04T09:57:55;4.25;;;1.52;;
38865;SDS011;62686;48.984;8.394;2023-06-04T10:00:26;4.05;;;1.80;;
38865;SDS011;62686;48.984;8.394;2023-06-04T10:02:56;4.90;;;1.75;;
38865;SDS011;62686;48.984;8.394;2023-06-04T10:05:25;3.08;;;1.50;;
38865;SDS011;62686;48.984;8.394;2023-06-04T10:07:57;5.05;;;1.80;;
38865;SDS011;62686;48.984;8.394;2023-06-04T10:10:30;3.45;;;1.70;;
38865;SDS011;62686;48.984;8.394;2023-06-04T10:13:04;1.85;;;1.45;;
38865;SDS011;62686;48.984;8.394;2023-06-04T10:15:39;4.32;;;1.60;;
38865;SDS011;62686;48.984;8.394;2023-06-04T10:18:07;3.45;;;1.40;;
38865;SDS011;62686;48.984;8.394;2023-06-04T10:20:37;3.72;;;1.70;;
38865;SDS011;62686;48.984;8.394;2023-06-04T10:23:09;2.38;;;1.70;;
38865;SDS011;62686;48.984;8.394;2023-06-04T10:25:38;4.20;;;1.65;;
38865;SDS011;62686;48.984;8.394;2023-06-04T10:28:06;4.18;;;1.63;;
38865;SDS011;62686;48.984;8.394;2023-06-04T10:30:35;4.10;;;1.60;;
38865;SDS011;62686;48.984;8.394;2023-06-04T10:33:04;2.90;;;1.80;;
38865;SDS011;62686;48.984;8.394;2023-06-04T10:35:32;2.22;;;1.58;;
38865;SDS011;62686;48.984;8.394;2023-06-04T10:38:05;3.40;;;1.70;;
38865;SDS011;62686;48.984;8.394;2023-06-04T10:40:36;2.78;;;1.80;;
38865;SDS011;62686;48.984;8.394;2023-06-04T10:43:05;5.90;;;1.90;;
38865;SDS011;62686;48.984;8.394;2023-06-04T10:45:34;2.92;;;1.55;;
38865;SDS011;62686;48.984;8.394;2023-06-04T10:48:03;2.85;;;1.80;;
38865;SDS011;62686;48.984;8.394;2023-06-04T10:50:34;3.88;;;1.83;;
38865;SDS011;62686;48.984;8.394;2023-06-04T10:53:03;5.57;;;1.95;;
38865;SDS011;62686;48.984;8.394;2023-06-04T10:55:32;5.15;;;1.67;;
38865;SDS011;62686;48.984;8.394;2023-06-04T10:58:12;2.50;;;1.77;;
38865;SDS011;62686;48.984;8.394;2023-06-04T11:00:41;3.67;;;2.10;;
38865;SDS011;62686;48.984;8.394;2023-06-04T11:03:12;3.33;;;1.75;;
38865;SDS011;62686;48.984;8.394;2023-06-04T11:05:42;5.00;;;1.95;;
38865;SDS011;62686;48.984;8.394;2023-06-04T11:08:11;2.80;;;1.80;;
38865;SDS011;62686;48.984;8.394;2023-06-04T11:10:42;5.57;;;1.65;;
38865;SDS011;62686;48.984;8.394;2023-06-04T11:13:13;5.22;;;1.88;;
38865;SDS011;62686;48.984;8.394;2023-06-04T11:15:44;2.45;;;1.50;;
38865;SDS011;62686;48.984;8.394;2023-06-04T11:18:15;4.65;;;1.63;;
38865;SDS011;62686;48.984;8.394;2023-06-04T11:20:45;3.08;;;1.70;;
38865;SDS011;62686;48.984;8.394;2023-06-04T11:23:15;4.40;;;1.55;;
38865;SDS011;62686;48.984;8.394;2023-06-04T11:25:44;3.95;;;1.60;;
38865;SDS011;62686;48.984;8.394;2023-06-04T11:28:17;4.53;;;1.73;;
38865;SDS011;62686;48.984;8.394;2023-06-04T11:30:55;3.15;;;1.60;;
38865;SDS011;62686;48.984;8.394;2023-06-04T11:33:24;3.95;;;1.70;;
38865;SDS011;62686;48.984;8.394;2023-06-04T11:35:52;3.78;;;1.75;;
38865;SDS011;62686;48.984;8.394;2023-06-04T11:38:21;2.05;;;1.73;;
38865;SDS011;62686;48.984;8.394;2023-06-04T11:40:56;1.90;;;1.70;;
38865;SDS011;62686;48.984;8.394;2023-06-04T11:43:28;4.25;;;1.75;;
38865;SDS011;62686;48.984;8.394;2023-06-04T11:45:57;3.47;;;1.92;;
38865;SDS011;62686;48.984;8.394;2023-06-04T11:48:26;3.72;;;1.50;;
38865;SDS011;62686;48.984;8.394;2023-06-04T11:50:54;3.28;;;1.90;;
38865;SDS011;62686;48.984;8.394;2023-06-04T11:53:24;3.38;;;1.92;;
38865;SDS011;62686;48.984;8.394;2023-06-04T11:55:54;3.55;;;1.95;;
38865;SDS011;62686;48.984;8.394;2023-06-04T11:58:23;5.70;;;1.50;;
38865;SDS011;62686;48.984;8.394;2023-06-04T12:00:53;5.88;;;1.90;;
38865;SDS011;62686;48.984;8.394;2023-06-04T12:03:31;5.63;;;1.90;;
38865;SDS011;62686;48.984;8.394;2023-06-04T12:06:13;5.25;;;1.90;;
38865;SDS011;62686;48.984;8.394;2023-06-04T12:08:46;3.92;;;1.80;;
38865;SDS011;62686;48.984;8.394;2023-06-04T12:11:25;5.45;;;2.05;;
38865;SDS011;62686;48.984;8.394;2023-06-04T12:13:55;4.65;;;1.80;;
38865;SDS011;62686;48.984;8.394;2023-06-04T12:16:26;3.25;;;1.80;;
38865;SDS011;62686;48.984;8.394;2023-06-04T12:19:04;2.85;;;1.80;;
38865;SDS011;62686;48.984;8.394;2023-06-04T12:21:36;4.53;;;1.90;;
38865;SDS011;62686;48.984;8.394;2023-06-04T12:24:06;6.05;;;1.75;;
38865;SDS011;62686;48.984;8.394;2023-06-04T12:26:35;2.40;;;1.63;;
38865;SDS011;62686;48.984;8.394;2023-06-04T12:29:07;5.70;;;2.05;;
38865;SDS011;62686;48.984;8.394;2023-06-04T12:31:39;2.67;;;1.85;;
38865;SDS011;62686;48.984;8.394;2023-06-04T12:34:09;2.60;;;1.70;;
38865;SDS011;62686;48.984;8.394;2023-06-04T12:36:38;3.05;;;1.85;;
38865;SDS011;62686;48.984;8.394;2023-06-04T12:39:07;3.65;;;1.90;;
38865;SDS011;62686;48.984;8.394;2023-06-04T12:41:35;4.40;;;1.98;;
38865;SDS011;62686;48.984;8.394;2023-06-04T12:44:04;3.40;;;1.60;;
38865;SDS011;62686;48.984;8.394;2023-06-04T12:46:32;2.58;;;2.00;;
38865;SDS011;62686;48.984;8.394;2023-06-04T12:49:02;4.50;;;2.00;;
38865;SDS011;62686;48.984;8.394;2023-06-04T12:51:31;2.88;;;1.90;;
38865;SDS011;62686;48.984;8.394;2023-06-04T12:54:00;3.80;;;2.10;;
38865;SDS011;62686;48.984;8.394;2023-06-04T12:56:28;3.67;;;2.15;;
38865;SDS011;62686;48.984;8.394;2023-06-04T12:58:57;6.57;;;2.25;;
38865;SDS011;62686;48.984;8.394;2023-06-04T13:01:25;2.47;;;1.77;;
38865;SDS011;62686;48.984;8.394;2023-06-04T13:03:53;3.35;;;2.08;;
38865;SDS011;62686;48.984;8.394;2023-06-04T13:06:24;4.68;;;2.00;;
38865;SDS011;62686;48.984;8.394;2023-06-04T13:08:53;4.13;;;1.90;;
38865;SDS011;62686;48.984;8.394;2023-06-04T13:11:21;5.90;;;2.13;;
38865;SDS011;62686;48.984;8.394;2023-06-04T13:13:50;3.05;;;1.95;;
38865;SDS011;62686;48.984;8.394;2023-06-04T13:16:19;4.28;;;2.10;;
38865;SDS011;62686;48.984;8.394;2023-06-04T13:18:47;2.10;;;1.90;;
38865;SDS011;62686;48.984;8.394;2023-06-04T13:21:15;2.55;;;1.92;;
38865;SDS011;62686;48.984;8.394;2023-06-04T13:23:45;2.97;;;2.00;;
38865;SDS011;62686;48.984;8.394;2023-06-04T13:26:16;4.95;;;2.00;;
38865;SDS011;62686;48.984;8.394;2023-06-04T13:28:45;4.22;;;2.00;;
38865;SDS011;62686;48.984;8.394;2023-06-04T13:31:14;2.92;;;1.80;;
38865;SDS011;62686;48.984;8.394;2023-06-04T13:33:42;2.83;;;2.10;;
38865;SDS011;62686;48.984;8.394;2023-06-04T13:36:11;3.25;;;1.80;;
38865;SDS011;62686;48.984;8.394;2023-06-04T13:38:39;5.00;;;2.20;;
38865;SDS011;62686;48.984;8.394;2023-06-04T13:41:11;5.10;;;2.15;;
38865;SDS011;62686;48.984;8.394;2023-06-04T13:43:39;2.47;;;2.08;;
38865;SDS011;62686;48.984;8.394;2023-06-04T13:46:07;2.50;;;2.30;;
38865;SDS011;62686;48.984;8.394;2023-06-04T13:48:36;2.72;;;2.03;;
38865;SDS011;62686;48.984;8.394;2023-06-04T13:51:04;4.53;;;2.20;;
38865;SDS011;62686;48.984;8.394;2023-06-04T13:53:33;3.67;;;2.35;;
38865;SDS011;62686;48.984;8.394;2023-06-04T13:56:02;6.47;;;2.03;;
38865;SDS011;62686;48.984;8.394;2023-06-04T13:58:32;3.30;;;1.65;;
38865;SDS011;62686;48.984;8.394;2023-06-04T14:01:00;2.78;;;1.85;;
38865;SDS011;62686;48.984;8.394;2023-06-04T14:03:29;3.22;;;1.80;;
38865;SDS011;62686;48.984;8.394;2023-06-04T14:05:57;5.18;;;2.20;;
38865;SDS011;62686;48.984;8.394;2023-06-04T14:08:26;2.05;;;1.80;;
38865;SDS011;62686;48.984;8.394;2023-06-04T14:10:55;4.40;;;2.00;;
38865;SDS011;62686;48.984;8.394;2023-06-04T14:13:24;4.07;;;2.00;;
38865;SDS011;62686;48.984;8.394;2023-06-04T14:15:54;3.55;;;2.13;;
38865;SDS011;62686;48.984;8.394;2023-06-04T14:18:22;3.15;;;1.95;;
38865;SDS011;62686;48.984;8.394;2023-06-04T14:20:50;4.60;;;2.20;;
38865;SDS011;62686;48.984;8.394;2023-06-04T14:23:19;2.63;;;2.00;;
38865;SDS011;62686;48.984;8.394;2023-06-04T14:25:47;2.50;;;2.20;;
38865;SDS011;62686;48.984;8.394;2023-06-04T14:28:16;3.72;;;2.13;;
38865;SDS011;62686;48.984;8.394;2023-06-04T14:30:47;2.92;;;2.50;;
38865;SDS011;62686;48.984;8.394;2023-06-04T14:33:17;3.55;;;2.20;;
38865;SDS011;62686;48.984;8.394;2023-06-04T14:35:45;3.20;;;2.17;;
38865;SDS011;62686;48.984;8.394;2023-06-04T14:38:14;3.67;;;2.10;;
38865;SDS011;62686;48.984;8.394;2023-06-04T14:40:43;4.35;;;2.30;;
38865;SDS011;62686;48.984;8.394;2023-06-04T14:43:11;5.03;;;2.50;;
38865;SDS011;62686;48.984;8.394;2023-06-04T14:45:40;4.07;;;2.20;;
38865;SDS011;62686;48.984;8.394;2023-06-04T14:48:08;3.47;;;2.20;;
38865;SDS011;62686;48.984;8.394;2023-06-04T14:50:41;5.63;;;2.33;;
38865;SDS011;62686;48.984;8.394;2023-06-04T14:53:10;4.53;;;2.00;;
38865;SDS011;62686;48.984;8.394;2023-06-04T14:55:39;2.50;;;1.95;;
38865;SDS011;62686;48.984;8.394;2023-06-04T14:58:07;5.40;;;2.40;;
38865;SDS011;62686;48.984;8.394;2023-06-04T15:00:37;3.28;;;2.35;;